Time;durP1;ratioP1;P1;durP2;ratioP2;P2;SDS_P1;SDS_P2;PMS_P1;PMS_P2;Temp;Humidity;BMP_temperature;BMP_pressure;BME280_temperature;BME280_humidity;BME280_pressure;Samples;Min_cycle;Max_cycle;Signal;HPM_P1;HPM_P2
2021/08/18 00:01:40;;;;;;;1.33;0.70;;;;;;;14.39;94.67;99798.34;4864282;29;20046;-87
2021/08/18 00:04:07;;;;;;;4.22;0.80;;;;;;;14.38;94.40;99791.31;4848396;29;20026;-87
2021/08/18 00:06:33;;;;;;;1.85;0.70;;;;;;;14.19;94.41;99747.47;4848424;29;20254;-85
2021/08/18 00:08:58;;;;;;;2.00;0.80;;;;;;;14.76;94.64;99835.72;4848124;29;20014;-88
2021/08/18 00:11:24;;;;;;;1.52;0.60;;;;;;;14.15;94.11;99750.94;4844375;29;20019;-87
2021/08/18 00:13:50;;;;;;;2.35;0.60;;;;;;;14.22;94.16;99751.56;4844354;29;20035;-88
2021/08/18 00:16:16;;;;;;;1.98;0.70;;;;;;;14.43;93.95;99774.31;4830310;29;20034;-88
2021/08/18 00:18:42;;;;;;;1.45;0.60;;;;;;;14.15;93.47;99738.22;4830570;29;20031;-87
2021/08/18 00:21:08;;;;;;;1.38;0.80;;;;;;;14.20;93.56;99729.34;4857839;29;20042;-87
2021/08/18 00:23:34;;;;;;;1.05;0.70;;;;;;;14.22;94.16;99757.00;4865740;29;20055;-87
2021/08/18 00:25:59;;;;;;;2.13;0.68;;;;;;;14.23;94.30;99758.63;4853956;29;20015;-87
2021/08/18 00:28:25;;;;;;;0.88;0.60;;;;;;;14.27;94.38;99768.72;4846801;29;20026;-87
2021/08/18 00:30:51;;;;;;;1.38;0.80;;;;;;;14.72;94.09;99832.69;4851140;29;20005;-87
2021/08/18 00:33:16;;;;;;;0.90;0.77;;;;;;;14.77;93.87;99831.97;4865940;29;20022;-87
2021/08/18 00:35:42;;;;;;;1.30;0.60;;;;;;;14.80;94.26;99836.84;4863342;29;20085;-88
2021/08/18 00:38:08;;;;;;;2.17;0.80;;;;;;;14.82;94.32;99829.31;4848001;29;20048;-88
2021/08/18 00:40:34;;;;;;;1.10;0.57;;;;;;;14.26;93.96;99745.41;4847377;29;20094;-88
2021/08/18 00:42:59;;;;;;;1.20;0.75;;;;;;;14.53;94.13;99771.78;4856536;29;20018;-87
2021/08/18 00:45:25;;;;;;;0.93;0.65;;;;;;;14.90;94.65;99820.75;4846604;29;20077;-88
2021/08/18 00:47:52;;;;;;;1.00;0.70;;;;;;;14.33;94.34;99731.69;4845783;29;20038;-88
2021/08/18 00:50:22;;;;;;;1.02;0.65;;;;;;;14.34;94.58;99738.75;4843442;29;20038;-88
2021/08/18 00:52:47;;;;;;;2.17;0.65;;;;;;;14.31;94.69;99723.84;4828443;29;20075;-88
2021/08/18 00:55:16;;;;;;;2.10;0.77;;;;;;;14.41;94.48;99742.09;4877439;29;20020;-88
2021/08/18 00:57:41;;;;;;;1.30;0.60;;;;;;;14.64;94.89;99759.22;4847596;29;20023;-88
2021/08/18 01:00:09;;;;;;;1.98;0.60;;;;;;;14.64;94.58;99756.50;4846540;29;20063;-88
2021/08/18 01:02:43;;;;;;;3.17;0.80;;;;;;;14.43;94.75;99729.13;4829632;29;20023;-88
2021/08/18 01:05:15;;;;;;;2.10;0.60;;;;;;;14.45;95.28;99720.78;4828832;29;20093;-87
2021/08/18 01:07:55;;;;;;;3.35;1.00;;;;;;;14.53;95.20;99742.81;4854827;29;20086;-88
2021/08/18 01:10:27;;;;;;;4.93;0.80;;;;;;;15.17;95.91;99825.41;4860480;29;20062;-88
2021/08/18 01:12:54;;;;;;;2.35;0.98;;;;;;;14.59;96.03;99722.06;4847053;29;20090;-88
2021/08/18 01:15:22;;;;;;;5.88;1.42;;;;;;;14.51;96.50;99720.63;4846553;29;20010;-87
2021/08/18 01:17:53;;;;;;;1.73;0.77;;;;;;;14.82;96.74;99758.88;4847300;29;20018;-88
2021/08/18 01:20:31;;;;;;;3.20;0.80;;;;;;;14.87;95.92;99755.44;4846428;29;20027;-88
2021/08/18 01:22:59;;;;;;;2.58;0.75;;;;;;;14.69;94.93;99729.47;4845609;29;20027;-88
2021/08/18 01:25:43;;;;;;;2.78;0.80;;;;;;;14.75;94.36;99726.59;4846921;29;20023;-87
2021/08/18 01:28:10;;;;;;;1.75;0.80;;;;;;;14.81;93.26;99722.06;4831849;29;20078;-88
2021/08/18 01:30:37;;;;;;;3.10;0.85;;;;;;;15.02;93.16;99756.41;4832519;29;20079;-87
2021/08/18 01:33:12;;;;;;;3.35;0.82;;;;;;;14.89;91.92;99742.44;4849983;29;20090;-87
2021/08/18 01:40:51;;;;;;;2.00;0.68;;;;;;;15.22;89.46;99755.81;5179818;23;20063;-89
2021/08/18 01:45:52;;;;;;;4.13;0.93;;;;;;;14.98;89.42;99705.72;5264202;23;20057;-87
2021/08/18 01:48:23;;;;;;;1.33;0.60;;;;;;;15.02;89.17;99696.00;4842957;29;20040;-87
2021/08/18 01:50:52;;;;;;;1.80;1.00;;;;;;;15.38;88.61;99754.06;4837864;29;20044;-88
2021/08/18 01:53:26;;;;;;;2.10;0.90;;;;;;;15.34;88.68;99733.19;4850090;29;20014;-88
2021/08/18 01:55:51;;;;;;;1.63;0.75;;;;;;;15.37;88.55;99729.94;4840245;29;20019;-87
2021/08/18 01:58:17;;;;;;;1.60;0.80;;;;;;;15.46;87.77;99736.50;4831927;29;20094;-88
2021/08/18 02:00:45;;;;;;;0.82;0.65;;;;;;;15.98;86.42;99803.72;4832368;29;20048;-87
2021/08/18 02:03:10;;;;;;;1.13;0.60;;;;;;;15.30;86.45;99700.34;4831545;29;20032;-88
2021/08/18 02:05:36;;;;;;;1.02;0.70;;;;;;;15.34;86.93;99704.16;4844067;29;20111;-87
2021/08/18 02:08:02;;;;;;;3.47;0.80;;;;;;;15.48;86.00;99729.78;4850305;29;20010;-88
2021/08/18 02:10:28;;;;;;;1.52;0.80;;;;;;;15.52;86.64;99736.31;4843695;29;20022;-88
2021/08/18 02:12:54;;;;;;;1.45;0.90;;;;;;;15.55;86.04;99743.13;4832254;29;20019;-88
2021/08/18 02:15:29;;;;;;;3.10;0.80;;;;;;;16.06;86.26;99795.13;4836372;29;20026;-88
2021/08/18 02:17:57;;;;;;;1.70;1.00;;;;;;;16.10;86.20;99801.66;4847457;29;20029;-88
2021/08/18 02:20:39;;;;;;;3.72;1.00;;;;;;;15.97;86.50;99778.47;4849065;29;20071;-88
2021/08/18 02:23:08;;;;;;;2.67;1.20;;;;;;;15.68;87.29;99733.75;4844026;29;20079;-87
2021/08/18 02:25:34;;;;;;;3.42;1.15;;;;;;;15.73;88.09;99725.69;4846036;29;20038;-87
2021/08/18 02:28:04;;;;;;;5.85;1.30;;;;;;;15.69;91.33;99694.72;4831812;29;20011;-87
2021/08/18 02:30:33;;;;;;;5.97;1.10;;;;;;;15.72;91.32;99691.47;4846410;29;20026;-87
2021/08/18 02:32:59;;;;;;;5.50;1.25;;;;;;;15.77;91.27;99693.44;4832100;29;20079;-86
2021/08/18 02:35:26;;;;;;;6.75;1.60;;;;;;;16.13;90.80;99741.44;4831732;29;20027;-88
2021/08/18 02:37:54;;;;;;;2.75;0.90;;;;;;;16.47;90.95;99786.41;4832549;29;20027;-88
2021/08/18 02:40:20;;;;;;;4.72;1.35;;;;;;;15.89;91.12;99704.88;4849365;29;20019;-87
2021/08/18 02:42:48;;;;;;;7.40;1.83;;;;;;;15.82;91.85;99691.56;4850208;29;20086;-88
2021/08/18 02:51:54;;;;;;;5.45;1.13;;;;;;;15.78;91.83;99678.78;4937517;24;19968;-88
2021/08/18 02:54:20;;;;;;;6.78;1.52;;;;;;;15.97;91.66;99713.38;4848568;29;20046;-88
2021/08/18 02:56:45;;;;;;;5.68;1.20;;;;;;;16.49;91.94;99781.53;4848628;29;20018;-88
2021/08/18 02:59:11;;;;;;;6.43;1.42;;;;;;;15.85;92.18;99687.50;4848729;29;20022;-87
2021/08/18 03:01:38;;;;;;;9.25;1.63;;;;;;;16.48;92.51;99785.31;4857804;29;20018;-87
2021/08/18 03:04:04;;;;;;;6.22;1.60;;;;;;;15.94;92.44;99694.91;4867294;29;20048;-87
2021/08/18 03:06:29;;;;;;;7.53;1.42;;;;;;;16.07;92.09;99717.22;4874342;29;20027;-86
2021/08/18 03:08:55;;;;;;;4.38;1.17;;;;;;;15.88;91.44;99684.28;4844801;29;20031;-87
2021/08/18 03:11:21;;;;;;;5.60;1.10;;;;;;;16.48;91.07;99775.28;4831324;29;20049;-85
2021/08/18 03:13:49;;;;;;;6.63;1.23;;;;;;;15.81;90.66;99668.22;4849736;29;20018;-87
2021/08/18 03:16:15;;;;;;;5.10;1.38;;;;;;;16.12;90.47;99717.25;4849378;29;20045;-86
2021/08/18 03:18:41;;;;;;;5.93;1.38;;;;;;;16.12;90.80;99703.69;4849030;29;20038;-87
2021/08/18 03:21:09;;;;;;;7.47;1.30;;;;;;;16.13;90.87;99705.34;4867015;29;20010;-88
2021/08/18 03:23:35;;;;;;;7.28;1.38;;;;;;;15.87;90.98;99669.91;4867242;29;20037;-87
2021/08/18 03:26:01;;;;;;;6.70;1.33;;;;;;;15.86;91.40;99671.00;4863984;29;20035;-87
2021/08/18 03:28:26;;;;;;;3.85;1.23;;;;;;;15.97;90.59;99704.41;4859052;29;20026;-87
2021/08/18 03:30:52;;;;;;;7.22;1.80;;;;;;;16.09;91.26;99712.34;4865766;29;20021;-86
2021/08/18 03:33:18;;;;;;;6.93;2.10;;;;;;;15.80;90.96;99671.22;4867217;29;20010;-87
2021/08/18 03:35:43;;;;;;;5.90;1.40;;;;;;;15.91;90.62;99676.44;4865340;29;20106;-87
2021/08/18 03:38:09;;;;;;;4.57;1.20;;;;;;;16.10;90.89;99708.56;4866683;29;20085;-88
2021/08/18 03:40:34;;;;;;;6.82;1.70;;;;;;;16.04;90.96;99706.91;4861585;29;20025;-87
2021/08/18 03:43:03;;;;;;;6.82;1.35;;;;;;;16.03;90.41;99711.50;4848867;29;20054;-88
2021/08/18 03:45:28;;;;;;;5.78;1.30;;;;;;;16.12;89.83;99725.38;4844413;29;20014;-88
2021/08/18 03:47:54;;;;;;;4.43;1.20;;;;;;;16.08;89.84;99719.66;4849034;29;20010;-88
2021/08/18 03:50:20;;;;;;;4.07;1.20;;;;;;;15.94;88.73;99694.91;5194666;23;20023;-86
2021/08/18 03:52:45;;;;;;;5.10;1.20;;;;;;;15.87;88.01;99669.09;4884142;29;20105;-87
2021/08/18 03:55:13;;;;;;;5.47;1.33;;;;;;;15.97;89.00;99683.53;4877242;29;20104;-87
2021/08/18 03:57:39;;;;;;;4.63;0.95;;;;;;;15.98;88.80;99679.72;4859645;29;20010;-88
2021/08/18 04:00:08;;;;;;;5.30;1.20;;;;;;;15.97;88.64;99677.28;4867656;29;20014;-87
2021/08/18 04:07:44;;;;;;;5.18;1.08;;;;;;;16.06;86.87;99670.28;5303837;23;20050;-88
2021/08/18 04:10:13;;;;;;;9.13;1.30;;;;;;;16.28;85.06;99677.44;4846457;29;20066;-87
2021/08/18 04:18:01;;;;;;;5.00;1.20;;;;;;;17.05;79.63;99722.00;4978553;24;20044;-88
2021/08/18 04:20:27;;;;;;;5.00;1.13;;;;;;;16.97;81.06;99676.34;4849326;29;20098;-89
2021/08/18 04:25:29;;;;;;;5.07;1.15;;;;;;;17.80;78.97;99790.41;5172567;23;20105;-84
2021/08/18 04:27:54;;;;;;;3.45;1.20;;;;;;;17.34;79.13;99712.28;4839174;29;20034;-83
2021/08/18 04:30:21;;;;;;;4.65;1.33;;;;;;;17.18;77.46;99685.34;4842458;29;20045;-82
2021/08/18 04:32:47;;;;;;;2.83;0.90;;;;;;;18.01;76.71;99791.22;4910522;24;20022;-83
2021/08/18 04:35:14;;;;;;;5.00;1.42;;;;;;;17.34;77.88;99679.66;4836926;29;20060;-83
2021/08/18 04:37:39;;;;;;;3.80;1.20;;;;;;;17.60;77.63;99725.91;4829907;29;20038;-82
2021/08/18 04:42:42;;;;;;;3.25;1.10;;;;;;;17.48;77.09;99679.09;4842384;29;20051;-84
2021/08/18 04:45:11;;;;;;;5.03;1.25;;;;;;;17.42;77.44;99664.72;4838103;29;20027;-85
2021/08/18 04:47:37;;;;;;;4.10;1.02;;;;;;;17.55;77.30;99668.78;4846256;29;20050;-87
2021/08/18 04:50:04;;;;;;;4.38;1.33;;;;;;;17.59;77.39;99664.44;4842554;29;20034;-83
2021/08/18 04:52:30;;;;;;;4.45;1.10;;;;;;;17.82;76.33;99718.31;5150232;23;20058;-84
2021/08/18 04:54:56;;;;;;;4.03;1.10;;;;;;;17.57;76.53;99681.00;4847769;29;20155;-85
2021/08/18 04:57:21;;;;;;;4.68;1.20;;;;;;;17.72;75.67;99688.34;4834321;29;20032;-81
2021/08/18 04:59:47;;;;;;;3.72;1.15;;;;;;;18.18;75.60;99758.25;4828439;29;20448;-82
2021/08/18 05:02:13;;;;;;;4.32;1.25;;;;;;;17.96;75.51;99713.13;4826433;29;20035;-84
2021/08/18 05:04:38;;;;;;;3.80;1.10;;;;;;;18.03;75.70;99721.00;5191706;24;20027;-83
2021/08/18 05:07:04;;;;;;;5.32;1.10;;;;;;;17.79;76.47;99680.75;4847732;29;20039;-85
2021/08/18 05:09:30;;;;;;;3.70;1.10;;;;;;;17.98;76.14;99694.63;5694379;23;20060;-85
2021/08/18 05:11:58;;;;;;;4.68;1.08;;;;;;;17.96;76.10;99671.47;4847473;29;20022;-86
2021/08/18 05:14:24;;;;;;;4.53;1.10;;;;;;;18.26;75.53;99709.50;4850542;29;20018;-84
2021/08/18 05:16:51;;;;;;;6.45;1.20;;;;;;;18.04;75.42;99677.16;4966452;23;20066;-87
2021/08/18 05:19:16;;;;;;;3.58;1.00;;;;;;;18.41;75.19;99702.38;5266281;23;20032;-80
2021/08/18 05:34:33;;;;;;;7.82;1.40;;;;;;;17.42;79.23;99710.09;4831826;29;20074;-81
2021/08/18 05:36:58;;;;;;;4.65;1.20;;;;;;;17.54;79.86;99711.47;4843212;29;20073;-86
2021/08/18 05:39:24;;;;;;;2.50;1.10;;;;;;;17.47;80.64;99700.06;4844639;29;20047;-86
2021/08/18 05:41:50;;;;;;;3.97;0.90;;;;;;;17.31;80.64;99669.31;4838754;29;20079;-83
2021/08/18 05:44:15;;;;;;;6.95;1.48;;;;;;;17.30;80.96;99659.53;4830953;29;20109;-81
2021/08/18 05:46:41;;;;;;;2.97;0.80;;;;;;;17.36;81.06;99657.63;4838321;29;20038;-83
2021/08/18 05:49:06;;;;;;;3.50;1.00;;;;;;;17.59;80.96;99686.19;4834919;29;20067;-84
2021/08/18 05:51:34;;;;;;;4.75;1.13;;;;;;;17.54;80.49;99664.41;4844443;29;20031;-84
2021/08/18 05:54:00;;;;;;;3.33;0.82;;;;;;;17.57;80.36;99664.69;4844290;29;20070;-85
2021/08/18 05:56:26;;;;;;;1.92;0.85;;;;;;;17.59;79.77;99659.00;4841711;29;20054;-85
2021/08/18 05:58:52;;;;;;;2.88;0.88;;;;;;;17.47;78.83;99634.78;4839374;29;20059;-85
2021/08/18 06:01:17;;;;;;;1.92;0.70;;;;;;;17.69;78.51;99664.41;4833106;29;20034;-84
2021/08/18 06:03:45;;;;;;;1.95;0.73;;;;;;;17.45;78.02;99622.53;4842924;29;20038;-85
2021/08/18 06:06:12;;;;;;;6.18;1.10;;;;;;;18.19;77.37;99719.88;4842738;29;20022;-84
2021/08/18 06:08:38;;;;;;;2.83;0.85;;;;;;;18.21;77.62;99719.59;4842919;29;20026;-84
2021/08/18 06:11:04;;;;;;;3.65;1.02;;;;;;;17.69;77.88;99650.81;4867436;29;20036;-83
2021/08/18 06:13:29;;;;;;;3.75;0.93;;;;;;;17.57;77.76;99618.44;4844992;29;20038;-84
2021/08/18 06:15:55;;;;;;;3.10;0.80;;;;;;;17.94;77.01;99674.47;4839784;29;20449;-81
2021/08/18 06:18:20;;;;;;;2.35;0.70;;;;;;;17.77;76.63;99653.00;4829084;29;20453;-81
2021/08/18 06:20:46;;;;;;;3.00;0.93;;;;;;;17.97;76.30;99664.94;4831734;29;20033;-81
2021/08/18 06:23:12;;;;;;;1.55;0.85;;;;;;;17.92;77.54;99648.63;4843416;29;20579;-82
2021/08/18 06:25:37;;;;;;;2.35;0.80;;;;;;;18.33;77.15;99716.56;4861210;29;20093;-82
2021/08/18 06:28:03;;;;;;;2.10;0.70;;;;;;;17.88;77.41;99631.19;4847546;29;20058;-81
2021/08/18 06:30:28;;;;;;;1.55;0.75;;;;;;;17.88;77.13;99634.78;4847373;29;20054;-82
2021/08/18 06:32:54;;;;;;;1.88;0.90;;;;;;;18.29;76.40;99683.63;4831752;29;20513;-81
2021/08/18 06:35:20;;;;;;;3.28;0.80;;;;;;;18.10;75.29;99655.38;4829395;29;20058;-81
2021/08/18 06:37:45;;;;;;;2.63;0.98;;;;;;;17.99;75.06;99630.09;4828484;29;20426;-81
2021/08/18 06:40:11;;;;;;;2.30;0.90;;;;;;;17.94;75.30;99620.03;4829911;29;20038;-81
2021/08/18 06:42:41;;;;;;;3.75;0.93;;;;;;;18.26;74.58;99665.94;4831027;29;20067;-82
2021/08/18 06:45:08;;;;;;;2.38;0.85;;;;;;;18.22;74.73;99643.09;4852021;29;20030;-82
2021/08/18 06:47:36;;;;;;;1.15;0.70;;;;;;;18.20;74.68;99637.09;4851653;29;20026;-83
2021/08/18 06:50:02;;;;;;;2.47;0.70;;;;;;;18.45;75.13;99654.44;4850859;29;20069;-84
2021/08/18 06:52:30;;;;;;;4.57;0.90;;;;;;;18.29;75.44;99621.81;4829763;29;20167;-83
2021/08/18 06:54:55;;;;;;;5.03;1.10;;;;;;;18.66;76.26;99672.31;4837649;29;20026;-81
2021/08/18 06:57:21;;;;;;;6.30;1.90;;;;;;;18.70;79.96;99684.28;4832567;29;20498;-81
2021/08/18 06:59:46;;;;;;;11.35;2.65;;;;;;;18.52;82.00;99655.75;4818048;29;20037;-81
2021/08/18 07:02:11;;;;;;;12.20;2.80;;;;;;;18.35;83.17;99638.16;4838631;29;20026;-82
2021/08/18 07:04:37;;;;;;;15.65;3.50;;;;;;;18.25;85.51;99650.72;4834212;29;20030;-82
2021/08/18 07:07:03;;;;;;;16.67;4.10;;;;;;;18.24;87.06;99676.28;4834301;29;20049;-82
2021/08/18 07:09:28;;;;;;;16.85;4.13;;;;;;;17.96;87.05;99625.22;4820167;29;20474;-81
2021/08/18 07:11:54;;;;;;;15.40;3.80;;;;;;;18.16;87.04;99641.47;4833284;29;20031;-82
2021/08/18 07:14:20;;;;;;;15.88;3.65;;;;;;;18.25;87.02;99647.97;4837780;29;20060;-83
2021/08/18 07:16:45;;;;;;;14.43;3.78;;;;;;;18.28;86.53;99652.06;4844901;29;20039;-82
2021/08/18 07:19:11;;;;;;;12.40;3.25;;;;;;;18.42;86.65;99655.00;4844555;29;20034;-82
2021/08/18 07:21:36;;;;;;;16.05;3.67;;;;;;;18.40;86.69;99663.44;4843824;29;20030;-83
2021/08/18 07:24:02;;;;;;;12.30;3.35;;;;;;;18.29;86.51;99604.66;4831126;29;20049;-82
2021/08/18 07:26:28;;;;;;;13.88;3.33;;;;;;;18.46;86.40;99643.25;4828620;29;20050;-83
2021/08/18 07:28:54;;;;;;;14.45;3.47;;;;;;;18.15;86.59;99587.31;4832197;29;20556;-82
2021/08/18 07:31:20;;;;;;;16.42;3.42;;;;;;;18.43;86.65;99635.63;4845124;29;20033;-83
2021/08/18 07:33:46;;;;;;;15.95;3.72;;;;;;;18.22;87.01;99643.09;4836594;29;20054;-82
2021/08/18 07:36:11;;;;;;;11.30;3.42;;;;;;;17.92;86.70;99597.75;4830199;29;20031;-82
2021/08/18 07:38:37;;;;;;;17.35;3.42;;;;;;;18.06;86.56;99617.81;4834767;29;20117;-82
2021/08/18 07:41:02;;;;;;;10.80;3.30;;;;;;;18.00;86.14;99605.31;4834639;29;20030;-83
2021/08/18 07:43:28;;;;;;;17.67;3.20;;;;;;;18.41;86.15;99659.63;4833814;29;20046;-82
2021/08/18 07:45:53;;;;;;;14.35;3.45;;;;;;;18.15;85.82;99596.28;4827921;29;20641;-83
2021/08/18 07:48:19;;;;;;;12.45;3.20;;;;;;;18.23;85.58;99612.03;4834464;29;20061;-83
2021/08/18 07:50:45;;;;;;;13.23;3.75;;;;;;;18.34;85.71;99647.38;4833715;29;20030;-82
2021/08/18 07:53:10;;;;;;;13.07;3.95;;;;;;;18.20;85.89;99633.56;4833326;29;20414;-83
2021/08/18 07:55:36;;;;;;;19.98;4.00;;;;;;;17.99;85.97;99624.66;4832346;29;20026;-82
2021/08/18 07:58:01;;;;;;;14.77;3.92;;;;;;;17.71;86.19;99596.94;4832885;29;20366;-82
2021/08/18 08:00:27;;;;;;;12.07;3.30;;;;;;;17.88;86.01;99639.38;4830473;29;20034;-81
2021/08/18 08:02:52;;;;;;;10.93;3.65;;;;;;;17.71;86.59;99643.19;4834851;29;20138;-81
2021/08/18 08:05:18;;;;;;;16.38;3.70;;;;;;;17.82;86.88;99660.34;4837470;29;20026;-83
2021/08/18 08:07:44;;;;;;;16.52;3.13;;;;;;;17.57;86.24;99585.00;4835513;29;20035;-82
2021/08/18 08:10:12;;;;;;;15.23;3.47;;;;;;;17.88;85.69;99610.28;4833948;29;20098;-82
2021/08/18 08:12:38;;;;;;;14.70;2.95;;;;;;;18.01;84.81;99611.56;4851944;29;20025;-82
2021/08/18 08:15:06;;;;;;;15.82;3.47;;;;;;;17.75;85.36;99589.88;4852704;29;20038;-83
2021/08/18 08:17:31;;;;;;;10.88;3.00;;;;;;;17.99;85.41;99632.81;4840522;29;20042;-84
2021/08/18 08:19:57;;;;;;;13.75;3.38;;;;;;;17.96;85.43;99627.94;4827692;29;20018;-85
2021/08/18 08:22:22;;;;;;;10.70;3.10;;;;;;;18.21;85.32;99633.31;4853232;29;20040;-82
2021/08/18 08:24:48;;;;;;;13.15;3.95;;;;;;;17.95;84.61;99602.63;4851738;29;20030;-83
2021/08/18 08:27:14;;;;;;;14.75;3.60;;;;;;;17.81;84.41;99579.78;4848953;29;20018;-83
2021/08/18 08:29:39;;;;;;;14.20;3.58;;;;;;;17.94;84.54;99594.72;4837308;29;20049;-82
2021/08/18 08:32:06;;;;;;;16.33;3.20;;;;;;;18.05;85.13;99610.75;4831174;29;20045;-82
2021/08/18 08:34:31;;;;;;;14.82;3.55;;;;;;;17.88;84.65;99595.81;4833029;29;20070;-81
2021/08/18 08:36:57;;;;;;;10.20;3.72;;;;;;;17.79;84.49;99611.94;4830929;29;20026;-82
2021/08/18 08:39:23;;;;;;;10.93;3.40;;;;;;;17.75;84.61;99595.31;4833263;29;20038;-82
2021/08/18 08:41:49;;;;;;;13.90;3.63;;;;;;;18.09;84.60;99611.00;4832309;29;20034;-82
2021/08/18 08:44:19;;;;;;;16.20;3.40;;;;;;;18.03;84.19;99566.66;4832363;29;20059;-81
2021/08/18 08:46:47;;;;;;;14.13;3.58;;;;;;;18.37;82.87;99595.09;4844745;29;20033;-82
2021/08/18 08:49:14;;;;;;;10.05;3.00;;;;;;;18.41;82.95;99590.69;4830923;29;20030;-82
2021/08/18 08:51:39;;;;;;;16.77;3.78;;;;;;;18.29;82.38;99601.94;4831254;29;20037;-83
2021/08/18 08:54:05;;;;;;;15.98;3.10;;;;;;;18.09;82.04;99572.91;4835481;29;20034;-83
2021/08/18 08:56:30;;;;;;;12.77;3.28;;;;;;;18.43;81.46;99618.50;4844788;29;20059;-82
2021/08/18 08:58:56;;;;;;;12.35;3.58;;;;;;;18.16;81.63;99583.50;4850277;29;20022;-83
2021/08/18 09:01:21;;;;;;;11.60;3.10;;;;;;;18.24;81.86;99605.50;4836523;29;20049;-80
2021/08/18 09:03:47;;;;;;;13.68;3.35;;;;;;;18.34;81.66;99620.16;4828673;29;20062;-83
2021/08/18 09:06:19;;;;;;;9.57;2.92;;;;;;;18.58;81.50;99648.38;4830257;29;20049;-83
2021/08/18 09:08:54;;;;;;;12.70;3.45;;;;;;;18.31;80.89;99607.94;4833638;29;20034;-83
2021/08/18 09:11:20;;;;;;;10.95;2.90;;;;;;;18.24;80.79;99586.44;4835217;29;20461;-81
2021/08/18 09:13:54;;;;;;;9.48;3.00;;;;;;;18.60;80.30;99627.09;4837666;29;20139;-82
2021/08/18 09:16:29;;;;;;;7.60;2.77;;;;;;;18.69;79.61;99621.88;4847438;29;20007;-84
2021/08/18 09:18:54;;;;;;;8.30;2.80;;;;;;;18.61;79.45;99615.13;4854026;29;20090;-83
2021/08/18 09:21:36;;;;;;;16.33;3.08;;;;;;;18.22;78.21;99568.75;4841884;29;20026;-82
2021/08/18 09:24:11;;;;;;;9.25;2.80;;;;;;;18.80;78.94;99663.53;4850936;29;20030;-82
2021/08/18 09:26:37;;;;;;;12.07;3.13;;;;;;;18.01;78.70;99555.25;4831470;29;20045;-82
2021/08/18 09:29:02;;;;;;;10.82;2.90;;;;;;;18.30;78.48;99604.38;4830159;29;20365;-82
2021/08/18 09:31:28;;;;;;;11.75;2.80;;;;;;;18.33;78.04;99589.41;4835472;29;20048;-82
2021/08/18 09:33:57;;;;;;;11.05;2.95;;;;;;;18.49;78.35;99620.09;4833644;29;20065;-83
2021/08/18 09:36:25;;;;;;;10.73;2.80;;;;;;;18.18;78.24;99546.72;4838576;29;20031;-83
2021/08/18 09:39:11;;;;;;;14.07;2.92;;;;;;;18.44;78.27;99582.81;4836881;29;20067;-85
2021/08/18 09:41:36;;;;;;;9.88;3.15;;;;;;;18.44;78.25;99561.03;4831297;29;20030;-80
2021/08/18 09:44:08;;;;;;;10.07;3.08;;;;;;;18.47;77.44;99567.78;4835754;29;20030;-82
2021/08/18 09:46:36;;;;;;;12.23;3.22;;;;;;;18.51;77.45;99563.44;4828078;29;20034;-82
2021/08/18 09:49:10;;;;;;;11.55;3.05;;;;;;;18.47;75.72;99562.34;4834823;29;20026;-81
2021/08/18 09:51:37;;;;;;;12.77;2.75;;;;;;;18.41;75.64;99555.28;4833076;29;20071;-83
2021/08/18 09:54:17;;;;;;;15.02;2.40;;;;;;;18.49;75.50;99560.97;4836099;29;20035;-82
2021/08/18 09:56:45;;;;;;;8.38;2.38;;;;;;;18.43;75.28;99547.66;4842814;29;20038;-84
2021/08/18 09:59:11;;;;;;;7.25;2.50;;;;;;;18.51;75.37;99552.53;4845531;29;20050;-85
2021/08/18 10:01:38;;;;;;;12.52;2.65;;;;;;;18.53;74.12;99564.75;4853915;29;20062;-83
2021/08/18 10:04:05;;;;;;;10.85;2.65;;;;;;;18.59;74.17;99579.16;4851641;29;20382;-84
2021/08/18 10:06:31;;;;;;;10.38;2.58;;;;;;;18.63;74.42;99593.84;4860334;29;20482;-83
2021/08/18 10:08:57;;;;;;;6.82;2.40;;;;;;;18.51;74.45;99560.72;4842087;29;20026;-83
2021/08/18 10:11:25;;;;;;;8.10;2.50;;;;;;;18.49;74.18;99571.06;4847951;29;20075;-85
2021/08/18 10:13:52;;;;;;;13.27;2.63;;;;;;;19.06;74.33;99654.13;4845570;29;20048;-85
2021/08/18 10:16:19;;;;;;;8.90;2.17;;;;;;;18.17;73.92;99534.19;4841908;29;20051;-82
2021/08/18 10:18:50;;;;;;;12.70;2.50;;;;;;;18.15;74.15;99541.84;4845433;29;20022;-85
2021/08/18 10:21:23;;;;;;;9.57;2.38;;;;;;;17.94;73.84;99538.38;4845135;29;20038;-86
2021/08/18 10:23:54;;;;;;;12.63;2.83;;;;;;;18.73;73.71;99637.41;4844996;29;20070;-85
2021/08/18 10:26:33;;;;;;;15.13;3.03;;;;;;;18.82;73.28;99621.28;4850904;29;20059;-85
2021/08/18 10:29:06;;;;;;;10.02;2.40;;;;;;;18.28;72.68;99534.97;4844218;29;20026;-84
2021/08/18 10:31:40;;;;;;;9.52;2.63;;;;;;;19.00;72.17;99630.69;4847219;29;20086;-85
2021/08/18 10:34:06;;;;;;;;;;;;;;;19.00;72.64;99644.34;4844401;29;20052;-85
2021/08/18 10:36:58;;;;;;;9.10;2.47;;;;;;;18.63;71.70;99596.56;4865500;29;19912;-83
2021/08/18 10:39:26;;;;;;;10.52;2.42;;;;;;;18.88;71.64;99636.53;4854847;29;20026;-84
2021/08/18 10:42:05;;;;;;;6.97;2.03;;;;;;;18.72;70.92;99578.56;4847987;29;20105;-86
2021/08/18 10:44:47;;;;;;;13.18;2.10;;;;;;;18.28;69.62;99507.75;4848306;29;20101;-85
2021/08/18 10:47:16;;;;;;;9.15;2.15;;;;;;;18.56;70.29;99552.50;4845577;29;20038;-85
2021/08/18 10:49:46;;;;;;;9.13;2.28;;;;;;;18.22;70.19;99498.78;4847485;29;20449;-85
2021/08/18 10:52:40;;;;;;;9.48;2.38;;;;;;;18.58;70.63;99560.41;4857508;29;20070;-85
2021/08/18 10:55:24;;;;;;;9.30;2.53;;;;;;;18.76;71.41;99603.34;4847562;29;20050;-85
2021/08/18 10:58:12;;;;;;;7.57;2.20;;;;;;;18.28;70.16;99529.53;4864176;29;20042;-85
2021/08/18 11:00:39;;;;;;;6.70;2.10;;;;;;;18.18;70.42;99526.84;4854261;29;20093;-85
2021/08/18 11:03:11;;;;;;;6.03;2.03;;;;;;;18.43;69.94;99608.41;4846424;29;20049;-84
2021/08/18 11:05:36;;;;;;;10.00;2.80;;;;;;;18.40;70.55;99599.97;4846972;29;20034;-85
2021/08/18 11:08:17;;;;;;;6.32;1.95;;;;;;;17.94;69.97;99518.53;4840429;29;20061;-85
2021/08/18 11:11:11;;;;;;;8.35;2.00;;;;;;;18.69;69.77;99605.53;4852217;29;20041;-86
2021/08/18 11:13:50;;;;;;;5.50;1.40;;;;;;;18.66;69.34;99603.38;4848071;29;20018;-85
2021/08/18 11:16:29;;;;;;;9.80;2.40;;;;;;;18.21;69.03;99535.28;4846427;29;20035;-85
2021/08/18 11:19:00;;;;;;;6.82;2.15;;;;;;;18.30;68.83;99527.31;4839199;29;20029;-85
2021/08/18 11:21:31;;;;;;;10.55;2.10;;;;;;;18.28;68.45;99530.34;4848409;29;20049;-85
2021/08/18 11:24:09;;;;;;;6.90;2.10;;;;;;;18.86;69.18;99613.38;4866019;29;20030;-86
2021/08/18 11:26:43;;;;;;;7.65;2.42;;;;;;;18.43;68.49;99523.97;4848656;29;20030;-85
2021/08/18 11:29:11;;;;;;;8.48;2.47;;;;;;;18.36;69.12;99530.84;4845044;29;20038;-85
2021/08/18 11:31:53;;;;;;;8.73;2.00;;;;;;;17.96;69.74;99468.16;4842892;29;20050;-85
2021/08/18 11:34:31;;;;;;;8.32;1.80;;;;;;;18.49;70.24;99554.72;4846442;29;20042;-85
2021/08/18 11:37:03;;;;;;;6.80;1.77;;;;;;;17.75;70.55;99469.34;4849370;29;20022;-86
2021/08/18 11:39:37;;;;;;;9.63;1.80;;;;;;;18.35;70.38;99572.78;4848356;29;20026;-85
2021/08/18 11:42:17;;;;;;;9.13;2.07;;;;;;;17.83;70.00;99499.53;4834093;29;20018;-85
2021/08/18 11:44:44;;;;;;;8.27;2.50;;;;;;;18.19;70.24;99583.75;4858151;29;20054;-86
2021/08/18 11:47:15;;;;;;;6.72;2.13;;;;;;;17.72;70.17;99502.53;4852925;29;20010;-85
2021/08/18 11:49:45;;;;;;;8.45;2.20;;;;;;;18.11;69.56;99570.69;4848999;29;20059;-85
2021/08/18 11:52:19;;;;;;;7.45;2.10;;;;;;;17.41;70.22;99456.41;4860672;29;20014;-85
2021/08/18 11:55:03;;;;;;;8.82;2.10;;;;;;;18.22;70.24;99564.13;4861811;29;20086;-86
2021/08/18 11:57:30;;;;;;;7.63;2.45;;;;;;;17.54;69.81;99455.81;4863845;29;20054;-86
2021/08/18 11:59:58;;;;;;;11.25;3.20;;;;;;;17.86;68.81;99489.19;4857572;29;20026;-85
2021/08/18 12:02:26;;;;;;;7.32;1.75;;;;;;;17.81;68.74;99482.69;4850509;29;20113;-85
2021/08/18 12:04:59;;;;;;;7.97;2.35;;;;;;;17.97;68.40;99505.16;4853633;29;20038;-86
2021/08/18 12:07:29;;;;;;;6.47;2.40;;;;;;;17.50;68.25;99434.88;4846012;29;20006;-84
2021/08/18 12:10:18;;;;;;;5.88;1.95;;;;;;;18.27;68.84;99553.19;4843927;29;20035;-86
2021/08/18 12:12:45;;;;;;;6.22;2.00;;;;;;;18.20;68.14;99547.25;4843693;29;20030;-86
2021/08/18 12:15:33;;;;;;;6.63;2.42;;;;;;;18.17;68.64;99555.16;4847148;29;20086;-86
2021/08/18 12:17:59;;;;;;;5.28;2.00;;;;;;;17.45;67.97;99457.50;4848866;29;20078;-87
2021/08/18 12:20:33;;;;;;;5.72;1.77;;;;;;;17.25;68.12;99428.47;4858104;29;20184;-87